Time;durP1;ratioP1;P1;durP2;ratioP2;P2;SDS_P1;SDS_P2;PMS_P1;PMS_P2;Temp;Humidity;BMP_temperature;BMP_pressure;BME280_temperature;BME280_humidity;BME280_pressure;Samples;Min_cycle;Max_cycle;Signal;HPM_P1;HPM_P2
2022/10/09 00:01:30;;;;;;;0.70;0.10;;;15.70;99.90;;;;;;5065830;28;20379;-90
2022/10/09 00:03:58;;;;;;;0.15;0.10;;;15.80;99.90;;;;;;5047246;28;20439;-92
2022/10/09 00:06:28;;;;;;;3.00;0.10;;;16.20;99.80;;;;;;5080201;28;20378;-90
2022/10/09 00:08:57;;;;;;;0.10;0.10;;;15.90;97.90;;;;;;5083700;28;20466;-90
2022/10/09 00:11:29;;;;;;;0.40;0.40;;;15.80;99.90;;;;;;5062959;28;20381;-94
2022/10/09 00:13:56;;;;;;;0.13;0.10;;;15.80;99.10;;;;;;5042620;28;20735;-91
2022/10/09 00:16:28;;;;;;;0.10;0.10;;;15.40;98.20;;;;;;5052648;28;20388;-94
2022/10/09 00:18:56;;;;;;;0.32;0.10;;;15.40;99.00;;;;;;5060152;28;20375;-89
2022/10/09 00:21:42;;;;;;;0.17;0.10;;;15.40;97.50;;;;;;5059694;28;20375;-91
2022/10/09 00:24:09;;;;;;;1.25;0.63;;;15.60;98.30;;;;;;5002158;28;20399;-93
2022/10/09 00:26:38;;;;;;;0.50;0.10;;;15.80;98.60;;;;;;5018194;28;20387;-87
2022/10/09 00:29:05;;;;;;;0.20;0.10;;;15.80;97.90;;;;;;5025061;28;20391;-85
2022/10/09 00:31:32;;;;;;;0.10;0.10;;;15.60;98.30;;;;;;5035364;28;20379;-87
2022/10/09 00:33:59;;;;;;;0.10;0.10;;;16.00;97.90;;;;;;5019695;28;20411;-89
2022/10/09 00:36:29;;;;;;;0.20;0.10;;;16.40;96.00;;;;;;5016262;28;20935;-90
2022/10/09 00:38:56;;;;;;;0.40;0.40;;;16.50;94.90;;;;;;5016076;28;20402;-86
2022/10/09 00:41:29;;;;;;;0.30;0.20;;;16.20;94.70;;;;;;5019412;28;20367;-85
2022/10/09 00:43:57;;;;;;;0.32;0.30;;;16.40;95.60;;;;;;5020986;28;20388;-90
2022/10/09 00:46:50;;;;;;;0.10;0.10;;;16.20;93.90;;;;;;5021150;28;20394;-86
2022/10/09 00:49:33;;;;;;;0.10;0.10;;;16.00;96.20;;;;;;5018609;28;20373;-89
2022/10/09 00:52:05;;;;;;;0.25;0.10;;;15.60;95.60;;;;;;4989894;28;20380;-85
2022/10/09 00:54:37;;;;;;;0.73;0.30;;;15.60;96.00;;;;;;5028959;28;20384;-85
2022/10/09 00:57:05;;;;;;;0.20;0.20;;;15.70;97.70;;;;;;5058749;28;20441;-87
2022/10/09 00:59:32;;;;;;;0.40;0.20;;;15.90;96.70;;;;;;5058010;28;20372;-87
2022/10/09 01:01:59;;;;;;;0.20;0.20;;;16.00;96.00;;;;;;5057364;28;20402;-88
2022/10/09 01:04:28;;;;;;;0.30;0.30;;;15.80;96.10;;;;;;5057740;28;20868;-89
2022/10/09 01:07:20;;;;;;;0.80;0.20;;;15.80;96.80;;;;;;5039664;28;20446;-86
2022/10/09 01:10:07;;;;;;;0.20;0.20;;;16.20;95.90;;;;;;5043801;28;20366;-87
2022/10/09 01:12:59;;;;;;;0.20;0.20;;;16.10;96.30;;;;;;5039042;28;20389;-86
2022/10/09 01:15:46;;;;;;;1.08;0.30;;;15.90;96.40;;;;;;5074004;28;20443;-91
2022/10/09 01:19:07;;;;;;;0.40;0.30;;;15.90;97.60;;;;;;5059664;28;20822;-85
2022/10/09 01:22:15;;;;;;;0.30;0.20;;;16.10;97.30;;;;;;4997860;28;20396;-89
2022/10/09 01:24:51;;;;;;;0.20;0.20;;;16.90;96.10;;;;;;4929191;29;20393;-86
2022/10/09 01:27:25;;;;;;;1.30;0.20;;;17.20;93.90;;;;;;4920661;29;20486;-86
2022/10/09 01:30:05;;;;;;;0.30;0.22;;;17.10;95.00;;;;;;4922668;29;20410;-87
2022/10/09 01:32:38;;;;;;;0.47;0.17;;;17.10;93.80;;;;;;4938095;29;20386;-90
2022/10/09 01:35:11;;;;;;;0.30;0.20;;;17.00;94.00;;;;;;4923069;29;20428;-87
2022/10/09 01:37:45;;;;;;;0.50;0.20;;;17.10;94.70;;;;;;4940558;29;20401;-94
2022/10/09 01:40:25;;;;;;;0.75;0.22;;;16.90;94.80;;;;;;4941464;29;20394;-87
2022/10/09 01:42:58;;;;;;;0.40;0.20;;;16.90;95.30;;;;;;4929045;29;20399;-93
2022/10/09 01:45:35;;;;;;;0.20;0.20;;;16.90;93.20;;;;;;4939431;29;20397;-91
2022/10/09 01:48:05;;;;;;;0.87;0.30;;;16.60;94.10;;;;;;4941350;29;20937;-93
2022/10/09 01:50:36;;;;;;;0.28;0.28;;;16.80;95.30;;;;;;4939895;29;20389;-86
2022/10/09 01:53:10;;;;;;;0.40;0.30;;;17.00;94.00;;;;;;4974992;28;20413;-91
2022/10/09 01:56:07;;;;;;;0.30;0.30;;;16.90;93.00;;;;;;4969037;28;20385;-89
2022/10/09 01:58:56;;;;;;;0.90;0.30;;;17.20;95.80;;;;;;5001924;28;20395;-90
2022/10/09 02:01:35;;;;;;;0.73;0.20;;;17.80;93.90;;;;;;5038176;28;20364;-91
2022/10/09 02:04:09;;;;;;;0.60;0.30;;;18.80;91.30;;;;;;5079923;28;20366;-89
2022/10/09 02:06:39;;;;;;;0.57;0.20;;;19.00;89.50;;;;;;5084514;28;20367;-88
2022/10/09 02:09:11;;;;;;;0.10;0.10;;;19.10;83.80;;;;;;5088395;28;20402;-86
2022/10/09 02:11:41;;;;;;;0.30;0.20;;;18.90;83.90;;;;;;5089462;28;20378;-84
2022/10/09 02:14:09;;;;;;;0.50;0.20;;;19.40;86.90;;;;;;5091250;28;20382;-84
2022/10/09 02:16:54;;;;;;;0.10;0.10;;;20.20;80.00;;;;;;5091001;28;20410;-85
2022/10/09 02:19:44;;;;;;;0.40;0.20;;;19.80;76.80;;;;;;5079607;28;20427;-83
2022/10/09 02:22:17;;;;;;;0.10;0.10;;;19.20;80.70;;;;;;5035778;28;20378;-85
2022/10/09 02:24:46;;;;;;;0.30;0.20;;;18.60;85.10;;;;;;5044958;28;20387;-86
2022/10/09 02:27:15;;;;;;;0.52;0.28;;;18.50;83.00;;;;;;5039458;28;20403;-86
2022/10/09 02:29:45;;;;;;;0.20;0.20;;;18.70;83.90;;;;;;5018959;28;20408;-85
2022/10/09 02:32:15;;;;;;;0.30;0.30;;;19.20;82.10;;;;;;5035562;28;20381;-88
2022/10/09 02:34:43;;;;;;;1.20;0.40;;;19.60;83.70;;;;;;5040343;28;20397;-86
2022/10/09 02:37:10;;;;;;;0.55;0.30;;;19.60;78.20;;;;;;5055218;28;20393;-89
2022/10/09 02:39:40;;;;;;;0.60;0.30;;;19.20;81.60;;;;;;5049653;28;20388;-92
2022/10/09 02:42:07;;;;;;;0.15;0.10;;;19.00;80.00;;;;;;5011871;28;20395;-94
2022/10/09 02:44:45;;;;;;;2.33;0.40;;;19.00;81.70;;;;;;5018730;28;20371;-92
2022/10/09 02:47:12;;;;;;;0.30;0.20;;;18.90;80.70;;;;;;4991206;28;20383;-93
2022/10/09 02:49:41;;;;;;;0.57;0.28;;;18.00;83.80;;;;;;5017223;28;20386;-89
2022/10/09 02:52:08;;;;;;;0.20;0.20;;;17.60;85.60;;;;;;5017353;28;20402;-91
2022/10/09 02:54:35;;;;;;;0.30;0.30;;;18.30;87.70;;;;;;5018460;28;20383;-88
2022/10/09 02:57:04;;;;;;;0.50;0.20;;;19.70;83.70;;;;;;5012332;28;20388;-87
2022/10/09 02:59:33;;;;;;;0.30;0.22;;;20.40;85.00;;;;;;5060687;28;20378;-90
2022/10/09 03:02:02;;;;;;;0.40;0.20;;;20.80;81.70;;;;;;5075390;28;20472;-89
2022/10/09 03:04:31;;;;;;;0.22;0.20;;;21.40;74.40;;;;;;5034072;28;20454;-94
2022/10/09 03:06:59;;;;;;;0.15;0.15;;;21.40;69.60;;;;;;5035217;28;20449;-89
2022/10/09 03:09:27;;;;;;;0.22;0.20;;;20.80;75.40;;;;;;5035937;28;20393;-88
2022/10/09 03:11:57;;;;;;;0.73;0.20;;;20.80;73.80;;;;;;5021100;28;20392;-93
2022/10/09 03:14:24;;;;;;;0.20;0.20;;;20.70;71.80;;;;;;5035850;28;20471;-92
2022/10/09 03:16:51;;;;;;;0.20;0.20;;;20.80;73.60;;;;;;5035999;28;20390;-87
2022/10/09 03:19:18;;;;;;;0.20;0.20;;;20.80;73.50;;;;;;5033326;28;20508;-92
2022/10/09 03:21:45;;;;;;;0.43;0.28;;;21.70;69.10;;;;;;5017686;28;20389;-90
2022/10/09 03:24:12;;;;;;;0.20;0.20;;;21.80;65.60;;;;;;5017934;28;20761;-86
2022/10/09 03:26:40;;;;;;;0.38;0.20;;;21.60;68.40;;;;;;5033620;28;20397;-91
2022/10/09 03:29:07;;;;;;;0.28;0.20;;;21.40;69.50;;;;;;5033492;28;20401;-93
2022/10/09 03:31:34;;;;;;;0.60;0.20;;;21.00;70.30;;;;;;5022190;28;20389;-92
2022/10/09 03:34:04;;;;;;;0.30;0.20;;;21.00;72.70;;;;;;5036677;28;20462;-88
2022/10/09 03:36:31;;;;;;;0.80;0.25;;;21.90;69.50;;;;;;5024523;28;20385;-86
2022/10/09 03:38:58;;;;;;;0.30;0.30;;;21.90;69.30;;;;;;5043086;28;20382;-91
2022/10/09 03:41:28;;;;;;;0.20;0.20;;;20.90;68.40;;;;;;5023326;28;20385;-94
2022/10/09 03:43:56;;;;;;;1.17;0.30;;;20.70;71.10;;;;;;5023486;28;20477;-93
2022/10/09 03:46:26;;;;;;;0.30;0.20;;;20.50;71.10;;;;;;5020051;28;20734;-88
2022/10/09 03:48:54;;;;;;;0.70;0.20;;;20.50;70.80;;;;;;5033090;28;20399;-89
2022/10/09 03:51:22;;;;;;;0.30;0.20;;;20.30;70.80;;;;;;5048433;28;20472;-87
2022/10/09 03:53:50;;;;;;;1.30;0.20;;;19.80;72.40;;;;;;5037210;28;20378;-88
2022/10/09 03:56:17;;;;;;;0.20;0.10;;;20.20;72.90;;;;;;5053691;28;20429;-88
2022/10/09 03:58:44;;;;;;;0.50;0.20;;;20.40;73.30;;;;;;5059271;28;20379;-90
2022/10/09 04:01:11;;;;;;;0.50;0.17;;;20.70;70.70;;;;;;5052298;28;20373;-91
2022/10/09 04:03:40;;;;;;;1.05;0.20;;;20.20;72.70;;;;;;5061671;28;20470;-86
2022/10/09 04:06:07;;;;;;;0.20;0.20;;;19.80;72.70;;;;;;5061665;28;20391;-91
2022/10/09 04:08:36;;;;;;;0.25;0.20;;;19.30;76.80;;;;;;5058519;28;20394;-92
2022/10/09 04:11:04;;;;;;;0.20;0.20;;;19.20;76.60;;;;;;5060273;28;20562;-91
2022/10/09 04:13:31;;;;;;;0.47;0.25;;;19.20;77.90;;;;;;5069361;28;20950;-89
2022/10/09 04:15:58;;;;;;;0.30;0.30;;;19.60;77.50;;;;;;5078779;28;20374;-89
2022/10/09 04:18:27;;;;;;;1.00;0.27;;;19.80;74.40;;;;;;5067288;28;20384;-86
2022/10/09 04:20:56;;;;;;;0.20;0.20;;;19.60;75.10;;;;;;5081640;28;20371;-85
2022/10/09 04:23:27;;;;;;;0.60;0.40;;;19.50;75.80;;;;;;5096562;28;20400;-87
2022/10/09 04:25:59;;;;;;;0.60;0.33;;;19.60;76.50;;;;;;5060571;28;20388;-89
2022/10/09 04:28:30;;;;;;;0.20;0.20;;;19.60;77.90;;;;;;5066094;28;20424;-93
2022/10/09 04:30:59;;;;;;;0.20;0.20;;;19.80;79.20;;;;;;5075461;28;20354;-87
2022/10/09 04:33:27;;;;;;;0.40;0.30;;;20.20;75.60;;;;;;5072709;28;20383;-93
2022/10/09 04:35:56;;;;;;;0.17;0.17;;;20.00;72.90;;;;;;5060790;28;20379;-88
2022/10/09 04:38:24;;;;;;;0.55;0.20;;;19.10;76.20;;;;;;5077388;28;20378;-92
2022/10/09 04:41:05;;;;;;;0.60;0.40;;;19.10;77.00;;;;;;5058296;28;20428;-88
2022/10/09 04:43:45;;;;;;;1.30;0.40;;;19.20;78.90;;;;;;5074498;28;20378;-89
2022/10/09 04:46:19;;;;;;;0.20;0.20;;;19.30;77.70;;;;;;5085165;28;20374;-94
2022/10/09 04:48:48;;;;;;;0.10;0.10;;;18.60;79.20;;;;;;5083401;28;20504;-86
2022/10/09 04:51:16;;;;;;;0.20;0.20;;;18.30;79.70;;;;;;5086377;28;20367;-88
2022/10/09 04:53:48;;;;;;;0.30;0.20;;;17.80;81.70;;;;;;5082582;28;20470;-88
2022/10/09 04:56:21;;;;;;;0.20;0.20;;;17.60;81.00;;;;;;5068392;28;20455;-89
2022/10/09 04:58:49;;;;;;;0.70;0.30;;;17.40;83.20;;;;;;5072317;28;20398;-87
2022/10/09 05:01:24;;;;;;;0.25;0.20;;;17.50;83.50;;;;;;5081308;28;20393;-85
2022/10/09 05:03:51;;;;;;;0.60;0.30;;;17.50;84.70;;;;;;5068817;28;20415;-86
2022/10/09 05:06:19;;;;;;;0.20;0.20;;;17.80;84.70;;;;;;5080838;28;20756;-84
2022/10/09 05:08:49;;;;;;;0.47;0.20;;;18.10;85.30;;;;;;5080598;28;20414;-91
2022/10/09 05:11:22;;;;;;;0.40;0.20;;;18.30;82.20;;;;;;5085206;28;20370;-84
2022/10/09 05:13:57;;;;;;;0.30;0.30;;;18.70;81.90;;;;;;5086257;28;20410;-84
2022/10/09 05:16:27;;;;;;;0.80;0.30;;;18.60;80.60;;;;;;5086559;28;20389;-83
2022/10/09 05:18:56;;;;;;;0.20;0.20;;;18.70;80.90;;;;;;5088761;28;20444;-84
2022/10/09 05:21:23;;;;;;;0.53;0.40;;;18.50;80.90;;;;;;5088446;28;20397;-94
2022/10/09 05:23:52;;;;;;;0.30;0.30;;;18.30;81.70;;;;;;5080324;28;20416;-84
2022/10/09 05:26:27;;;;;;;0.30;0.30;;;18.60;80.30;;;;;;5079425;28;20860;-86
2022/10/09 05:28:54;;;;;;;0.30;0.20;;;18.90;79.80;;;;;;5079766;28;20409;-90
2022/10/09 05:31:29;;;;;;;0.20;0.20;;;18.90;78.00;;;;;;5080738;28;20366;-85
2022/10/09 05:34:00;;;;;;;0.98;0.20;;;19.20;77.90;;;;;;5083566;28;20374;-95
2022/10/09 05:36:31;;;;;;;0.40;0.20;;;19.20;78.10;;;;;;5082123;28;20366;-86
2022/10/09 05:39:01;;;;;;;0.70;0.20;;;19.20;77.70;;;;;;5081335;28;20366;-85
2022/10/09 05:41:32;;;;;;;0.80;0.20;;;19.90;76.80;;;;;;5081886;28;20378;-93
2022/10/09 05:44:03;;;;;;;0.20;0.20;;;20.50;73.00;;;;;;5078130;28;20370;-90
2022/10/09 05:46:30;;;;;;;0.30;0.30;;;19.90;71.50;;;;;;5076527;28;20462;-94
2022/10/09 05:48:59;;;;;;;0.70;0.28;;;19.00;75.00;;;;;;5078210;28;20401;-86
2022/10/09 05:51:32;;;;;;;0.40;0.40;;;18.70;79.40;;;;;;5047040;28;20370;-87
2022/10/09 05:54:00;;;;;;;0.20;0.20;;;18.80;79.20;;;;;;5051681;28;20385;-87
2022/10/09 05:56:35;;;;;;;0.30;0.20;;;19.20;78.70;;;;;;5078953;28;20453;-89
2022/10/09 05:59:12;;;;;;;0.30;0.20;;;19.80;77.50;;;;;;5078464;28;20373;-88
2022/10/09 06:01:45;;;;;;;3.25;0.60;;;21.50;71.80;;;;;;5077828;28;20396;-94
2022/10/09 06:04:20;;;;;;;1.55;0.40;;;20.50;71.40;;;;;;5083217;28;20373;-90
2022/10/09 06:06:47;;;;;;;0.22;0.22;;;20.70;70.40;;;;;;5060690;28;20397;-85
2022/10/09 06:09:17;;;;;;;0.80;0.40;;;21.00;71.80;;;;;;5078556;28;20405;-88
2022/10/09 06:11:45;;;;;;;3.03;0.53;;;21.70;69.00;;;;;;5079833;28;20362;-93
2022/10/09 06:14:12;;;;;;;2.72;0.22;;;21.90;66.40;;;;;;5072263;28;20402;-89
2022/10/09 06:16:44;;;;;;;0.50;0.27;;;21.70;65.20;;;;;;5075996;28;20402;-95
2022/10/09 06:19:14;;;;;;;3.07;0.50;;;20.80;68.20;;;;;;5062987;28;20762;-90
2022/10/09 06:21:42;;;;;;;10.13;1.30;;;20.60;71.60;;;;;;5076341;28;20428;-92
2022/10/09 06:24:21;;;;;;;4.18;0.98;;;21.40;74.70;;;;;;5064528;28;20442;-93
2022/10/09 06:26:48;;;;;;;3.45;1.02;;;22.90;66.70;;;;;;5081640;28;20368;-94
2022/10/09 06:29:15;;;;;;;4.68;1.52;;;22.40;67.20;;;;;;5062584;28;20429;-94
2022/10/09 06:31:50;;;;;;;2.95;1.30;;;21.30;69.80;;;;;;5081169;28;20362;-86
2022/10/09 06:34:17;;;;;;;2.85;1.20;;;20.20;73.40;;;;;;5082484;28;20436;-87
2022/10/09 06:36:44;;;;;;;3.83;1.17;;;19.20;76.80;;;;;;5081892;28;20370;-89
2022/10/09 06:39:12;;;;;;;3.33;1.23;;;18.60;79.60;;;;;;5080029;28;20378;-87
2022/10/09 06:41:42;;;;;;;3.80;1.30;;;17.90;84.00;;;;;;5079690;28;20890;-91
2022/10/09 06:44:15;;;;;;;5.18;1.60;;;17.50;87.90;;;;;;5061534;28;20404;-93
2022/10/09 06:46:47;;;;;;;3.80;1.80;;;17.20;90.40;;;;;;5080081;28;20881;-85
2022/10/09 06:49:15;;;;;;;5.80;2.15;;;17.00;91.30;;;;;;5078718;28;20401;-85
2022/10/09 06:51:42;;;;;;;3.60;1.88;;;16.90;92.50;;;;;;5076170;28;20390;-87
2022/10/09 06:54:17;;;;;;;7.13;2.13;;;16.80;93.60;;;;;;5077555;28;20397;-90
2022/10/09 06:56:48;;;;;;;5.30;1.40;;;16.80;93.90;;;;;;5077358;28;20374;-89
2022/10/09 06:59:23;;;;;;;3.33;1.30;;;16.80;94.30;;;;;;5045022;28;20423;-94
2022/10/09 07:01:51;;;;;;;4.90;1.37;;;16.70;95.00;;;;;;5078952;28;20409;-85
2022/10/09 07:04:21;;;;;;;3.65;1.20;;;16.60;95.70;;;;;;5067511;28;20463;-88
2022/10/09 07:06:48;;;;;;;4.03;1.33;;;16.60;95.80;;;;;;5077695;28;20378;-85
2022/10/09 07:09:15;;;;;;;5.40;1.50;;;16.50;96.20;;;;;;5079413;28;20402;-94
2022/10/09 07:11:48;;;;;;;4.30;1.40;;;16.50;96.10;;;;;;5078332;28;20381;-93
2022/10/09 07:14:17;;;;;;;4.60;1.48;;;16.40;96.40;;;;;;5081238;28;20374;-84
2022/10/09 07:16:52;;;;;;;5.70;1.50;;;16.40;97.10;;;;;;5079948;28;20374;-87
2022/10/09 07:19:20;;;;;;;4.75;1.50;;;16.20;97.70;;;;;;5080293;28;20389;-85
2022/10/09 07:21:51;;;;;;;3.88;1.50;;;16.10;98.20;;;;;;5082451;28;20449;-86
2022/10/09 07:24:19;;;;;;;6.35;1.65;;;16.00;98.90;;;;;;5059524;28;20381;-92
2022/10/09 07:26:47;;;;;;;4.65;1.45;;;16.00;99.30;;;;;;5059216;28;20378;-91
2022/10/09 07:29:18;;;;;;;3.30;1.30;;;15.90;99.40;;;;;;5076980;28;20484;-87
2022/10/09 07:31:48;;;;;;;4.38;1.50;;;15.80;99.50;;;;;;5059466;28;20386;-95
2022/10/09 07:34:19;;;;;;;5.68;1.30;;;15.80;99.90;;;;;;5078313;28;20366;-95
2022/10/09 07:36:46;;;;;;;3.75;1.48;;;15.70;99.90;;;;;;5081783;28;20437;-89
2022/10/09 07:39:13;;;;;;;6.53;1.40;;;15.60;99.90;;;;;;5057678;28;20421;-94
2022/10/09 07:41:42;;;;;;;4.40;1.60;;;15.60;99.90;;;;;;5074342;28;20502;-86
2022/10/09 07:44:10;;;;;;;3.40;1.25;;;15.60;99.90;;;;;;5075227;28;20446;-86
2022/10/09 07:46:38;;;;;;;7.68;1.70;;;15.50;99.90;;;;;;5072049;28;20834;-85
2022/10/09 07:49:05;;;;;;;6.32;1.63;;;15.50;99.90;;;;;;5072101;28;20401;-85
2022/10/09 07:51:32;;;;;;;5.82;1.55;;;15.60;99.90;;;;;;5071133;28;20851;-85
2022/10/09 07:54:00;;;;;;;7.70;1.47;;;15.60;99.90;;;;;;5053601;28;20386;-86
2022/10/09 07:56:31;;;;;;;4.15;1.50;;;15.50;99.90;;;;;;5072368;28;20385;-86
2022/10/09 07:59:03;;;;;;;5.25;1.67;;;15.60;99.90;;;;;;5074500;28;20392;-85
2022/10/09 08:01:32;;;;;;;4.97;1.50;;;15.50;99.90;;;;;;5071895;28;20711;-85
2022/10/09 08:03:59;;;;;;;4.72;1.40;;;15.40;99.90;;;;;;5073761;28;20374;-85
2022/10/09 08:06:27;;;;;;;6.13;1.50;;;15.40;99.90;;;;;;5075367;28;20463;-91
2022/10/09 08:08:58;;;;;;;5.18;1.60;;;15.30;99.90;;;;;;5080747;28;20381;-86
2022/10/09 08:11:26;;;;;;;4.38;1.95;;;15.40;99.90;;;;;;5071355;28;20407;-86
2022/10/09 08:13:54;;;;;;;5.77;1.60;;;15.30;99.90;;;;;;5084788;28;20720;-85
2022/10/09 08:16:22;;;;;;;8.38;2.50;;;15.20;99.90;;;;;;5057196;28;20382;-86
2022/10/09 08:18:53;;;;;;;7.65;2.80;;;15.20;99.90;;;;;;5071309;28;20461;-87
2022/10/09 08:21:20;;;;;;;10.55;3.22;;;15.10;99.90;;;;;;5076286;28;20362;-93
2022/10/09 08:23:47;;;;;;;7.63;4.00;;;15.00;99.90;;;;;;5075259;28;20904;-87
2022/10/09 08:26:21;;;;;;;10.15;3.70;;;15.00;99.90;;;;;;5074675;28;20847;-93
2022/10/09 08:28:59;;;;;;;8.20;3.38;;;14.90;99.90;;;;;;5073872;28;20761;-90
2022/10/09 08:31:28;;;;;;;9.35;3.10;;;14.80;99.90;;;;;;5073919;28;20382;-87
2022/10/09 08:33:58;;;;;;;5.35;1.92;;;14.80;99.90;;;;;;5074772;28;20374;-94
2022/10/09 08:36:25;;;;;;;7.80;1.70;;;14.80;99.90;;;;;;5073976;28;20373;-86
2022/10/09 08:38:52;;;;;;;8.00;1.80;;;14.80;99.90;;;;;;5073787;28;20378;-86
2022/10/09 08:41:24;;;;;;;5.22;1.50;;;14.80;99.90;;;;;;5073201;28;20374;-94
2022/10/09 08:44:00;;;;;;;8.00;1.80;;;14.80;99.90;;;;;;5073682;28;20377;-94
2022/10/09 08:46:58;;;;;;;6.28;1.60;;;14.80;99.90;;;;;;5073326;28;20937;-93
2022/10/09 08:49:55;;;;;;;5.67;1.50;;;14.80;99.90;;;;;;5074046;28;20429;-88
2022/10/09 08:52:42;;;;;;;5.17;1.70;;;14.80;99.90;;;;;;5065066;28;20375;-89
2022/10/09 08:55:19;;;;;;;6.72;1.70;;;14.70;99.90;;;;;;5074479;28;20447;-92
2022/10/09 08:57:51;;;;;;;9.30;1.63;;;14.60;99.90;;;;;;5073522;28;20898;-86
2022/10/09 09:00:24;;;;;;;6.47;1.52;;;14.60;99.90;;;;;;5074301;28;20397;-85
2022/10/09 09:03:12;;;;;;;6.78;1.60;;;14.50;99.90;;;;;;5073766;28;20370;-88
2022/10/09 09:05:47;;;;;;;7.72;2.05;;;14.50;99.90;;;;;;5061936;28;20374;-92
2022/10/09 09:08:24;;;;;;;8.07;2.42;;;14.50;99.90;;;;;;5058947;28;20415;-85
2022/10/09 09:11:00;;;;;;;9.48;2.50;;;14.50;99.90;;;;;;5061717;28;20363;-85
2022/10/09 09:13:49;;;;;;;7.53;1.85;;;14.30;99.90;;;;;;5073463;28;21096;-93
2022/10/09 09:16:16;;;;;;;8.45;2.00;;;14.30;99.90;;;;;;5054843;28;20378;-85
2022/10/09 09:18:52;;;;;;;5.90;1.70;;;14.40;99.90;;;;;;5058554;28;20378;-85
2022/10/09 09:21:34;;;;;;;7.30;1.70;;;14.40;99.90;;;;;;5076634;28;20382;-92
2022/10/09 09:24:10;;;;;;;8.55;1.70;;;14.30;99.90;;;;;;5077843;28;20694;-94
2022/10/09 09:26:39;;;;;;;6.43;1.70;;;14.30;99.90;;;;;;5076851;28;20367;-92
2022/10/09 09:29:09;;;;;;;6.85;1.60;;;14.10;99.90;;;;;;5074468;28;20410;-93
2022/10/09 09:31:37;;;;;;;7.65;1.83;;;13.90;99.90;;;;;;5059192;28;20378;-94
2022/10/09 09:34:21;;;;;;;8.43;1.75;;;13.70;99.90;;;;;;5075461;28;20773;-90
2022/10/09 09:36:54;;;;;;;6.68;1.75;;;13.70;99.90;;;;;;5065411;28;20373;-88
2022/10/09 09:39:25;;;;;;;10.10;1.70;;;13.60;99.90;;;;;;5076336;28;20386;-85
2022/10/09 09:41:57;;;;;;;5.82;1.77;;;13.50;99.90;;;;;;5081580;28;20377;-85
2022/10/09 09:44:27;;;;;;;6.93;2.45;;;13.40;99.90;;;;;;5084120;28;20374;-86
2022/10/09 09:46:56;;;;;;;9.70;2.60;;;13.40;99.90;;;;;;5065039;28;20387;-84
2022/10/09 09:49:26;;;;;;;9.10;2.72;;;13.20;99.90;;;;;;5083984;28;20398;-84
2022/10/09 09:51:56;;;;;;;12.38;3.60;;;13.20;99.90;;;;;;5091292;28;20385;-85
2022/10/09 09:54:30;;;;;;;6.80;2.60;;;13.20;99.90;;;;;;5086775;28;20374;-91
2022/10/09 09:57:00;;;;;;;7.83;2.37;;;13.40;99.90;;;;;;5040889;28;20377;-91
2022/10/09 09:59:43;;;;;;;6.22;2.00;;;13.50;99.90;;;;;;5034487;28;20524;-92
2022/10/09 10:02:20;;;;;;;7.35;1.90;;;13.60;99.90;;;;;;5019817;28;20464;-86
2022/10/09 10:05:15;;;;;;;6.82;1.90;;;13.60;99.90;;;;;;5019618;28;20398;-93
2022/10/09 10:07:42;;;;;;;6.72;1.50;;;13.60;99.90;;;;;;5031297;28;20757;-84
2022/10/09 10:10:25;;;;;;;6.78;1.80;;;13.50;99.90;;;;;;5030099;28;20783;-85
2022/10/09 10:12:53;;;;;;;6.40;1.83;;;13.40;99.90;;;;;;5027072;28;20421;-85
2022/10/09 10:15:23;;;;;;;8.20;1.80;;;13.30;99.90;;;;;;5013149;28;20379;-86
2022/10/09 10:18:14;;;;;;;9.38;1.88;;;13.20;99.90;;;;;;5012570;28;20818;-85
2022/10/09 10:20:45;;;;;;;9.40;1.80;;;13.20;99.90;;;;;;5012485;28;20374;-90
2022/10/09 10:23:34;;;;;;;6.97;1.80;;;13.20;99.90;;;;;;5013756;28;20856;-91
2022/10/09 10:26:13;;;;;;;6.43;1.70;;;13.20;99.90;;;;;;5000783;28;20883;-90
2022/10/09 10:29:11;;;;;;;6.27;1.40;;;13.20;99.90;;;;;;5013931;28;20407;-93
2022/10/09 10:32:15;;;;;;;6.70;1.60;;;13.10;99.90;;;;;;4999521;28;20930;-91
2022/10/09 10:34:54;;;;;;;7.28;1.70;;;13.00;99.90;;;;;;5038009;28;20387;-84
2022/10/09 10:37:34;;;;;;;6.30;1.75;;;12.80;99.90;;;;;;5054998;28;20414;-85
2022/10/09 10:40:14;;;;;;;6.45;1.55;;;12.70;99.90;;;;;;5036246;28;20472;-85
2022/10/09 10:42:56;;;;;;;8.93;1.63;;;12.60;99.90;;;;;;5049039;28;21028;-89
2022/10/09 10:45:50;;;;;;;8.70;2.00;;;12.50;99.90;;;;;;5035217;28;20383;-87
2022/10/09 10:48:53;;;;;;;10.65;2.17;;;12.30;99.90;;;;;;5050470;28;20407;-90
2022/10/09 10:51:26;;;;;;;9.60;2.30;;;12.20;99.90;;;;;;4969402;28;20414;-86
2022/10/09 10:54:24;;;;;;;10.18;2.10;;;12.20;99.90;;;;;;4970313;28;20417;-84
2022/10/09 10:57:19;;;;;;;25.63;14.10;;;12.10;99.90;;;;;;4940269;28;20387;-87
2022/10/09 11:00:04;;;;;;;18.30;8.98;;;12.10;99.90;;;;;;4966167;28;20390;-84
2022/10/09 11:02:49;;;;;;;9.50;2.70;;;12.00;99.90;;;;;;4969574;28;20395;-84
2022/10/09 11:05:52;;;;;;;7.50;2.00;;;12.10;99.90;;;;;;4953419;28;20485;-87
2022/10/09 11:08:28;;;;;;;8.02;1.95;;;12.20;99.90;;;;;;4956029;28;20423;-91
2022/10/09 11:11:13;;;;;;;7.07;2.03;;;12.30;99.90;;;;;;4969814;28;20390;-82
2022/10/09 11:14:08;;;;;;;11.68;6.18;;;12.50;99.90;;;;;;4969262;28;20543;-87
2022/10/09 11:16:35;;;;;;;10.13;4.57;;;12.60;99.90;;;;;;4893574;29;20393;-92
2022/10/09 11:19:20;;;;;;;9.07;4.22;;;12.80;99.90;;;;;;4893594;29;20448;-84
2022/10/09 11:22:21;;;;;;;10.07;2.10;;;12.90;99.90;;;;;;4893443;29;20393;-84
2022/10/09 11:25:05;;;;;;;8.95;2.17;;;12.90;99.90;;;;;;4893860;29;20404;-87
2022/10/09 11:27:49;;;;;;;11.75;2.40;;;12.90;99.90;;;;;;4918248;28;20400;-83
2022/10/09 11:30:18;;;;;;;6.32;2.10;;;12.80;99.90;;;;;;4969946;28;20386;-86
2022/10/09 11:32:55;;;;;;;7.30;1.83;;;12.80;99.90;;;;;;4969751;28;20433;-91
2022/10/09 11:35:26;;;;;;;8.00;2.03;;;12.80;99.90;;;;;;4969835;28;20465;-87
2022/10/09 11:38:06;;;;;;;8.82;1.90;;;12.90;99.90;;;;;;4969779;28;20382;-85
2022/10/09 11:40:40;;;;;;;9.55;2.05;;;12.90;99.90;;;;;;4970079;28;20382;-87
2022/10/09 11:43:13;;;;;;;7.70;2.03;;;13.00;99.90;;;;;;4969745;28;20418;-86
2022/10/09 11:45:48;;;;;;;10.40;2.40;;;12.90;99.90;;;;;;4970142;28;20386;-88
2022/10/09 11:48:30;;;;;;;8.52;2.83;;;12.80;99.90;;;;;;4969928;28;20414;-87
2022/10/09 11:51:21;;;;;;;10.65;3.22;;;12.80;99.90;;;;;;4969943;28;20383;-84
2022/10/09 11:53:51;;;;;;;10.23;3.00;;;12.70;99.90;;;;;;5025726;28;20542;-86
2022/10/09 11:56:30;;;;;;;9.45;2.70;;;12.70;99.90;;;;;;5054404;28;20437;-93
2022/10/09 11:59:00;;;;;;;8.50;2.50;;;12.70;99.90;;;;;;5054032;28;20775;-92
2022/10/09 12:01:41;;;;;;;9.27;2.60;;;12.70;99.90;;;;;;5054262;28;20386;-89
2022/10/09 12:04:17;;;;;;;8.68;2.22;;;12.70;99.90;;;;;;5054337;28;20444;-94
2022/10/09 12:06:57;;;;;;;9.13;2.65;;;12.70;99.90;;;;;;5054424;28;20371;-83
2022/10/09 12:09:37;;;;;;;11.30;3.40;;;12.70;99.90;;;;;;5054329;28;20431;-86
2022/10/09 12:12:15;;;;;;;8.52;2.90;;;12.80;99.90;;;;;;5054234;28;20360;-90
2022/10/09 12:14:46;;;;;;;10.38;3.17;;;12.80;99.90;;;;;;5074373;28;20386;-83
2022/10/09 12:17:17;;;;;;;12.85;3.80;;;12.80;99.90;;;;;;5074929;28;20706;-86
2022/10/09 12:19:45;;;;;;;9.73;3.83;;;12.80;99.90;;;;;;5074621;28;20386;-87
2022/10/09 12:22:26;;;;;;;12.23;5.40;;;12.80;99.90;;;;;;5074620;28;20402;-83
2022/10/09 12:25:01;;;;;;;11.45;3.67;;;12.80;99.90;;;;;;5074774;28;20382;-84
2022/10/09 12:27:33;;;;;;;8.88;2.50;;;12.70;99.90;;;;;;5075159;28;20381;-93
2022/10/09 12:30:13;;;;;;;10.70;2.42;;;12.60;99.90;;;;;;5084354;28;20380;-83
2022/10/09 12:32:51;;;;;;;8.63;2.20;;;12.60;99.90;;;;;;5087008;28;20357;-85
2022/10/09 12:35:25;;;;;;;5.43;2.10;;;12.60;99.90;;;;;;5093706;28;20346;-83
2022/10/09 12:37:52;;;;;;;7.32;1.83;;;12.50;99.90;;;;;;5096554;28;20381;-84
2022/10/09 12:40:29;;;;;;;8.27;2.00;;;12.60;99.90;;;;;;5097357;28;20369;-83
2022/10/09 12:42:57;;;;;;;6.90;1.90;;;12.60;99.90;;;;;;5097779;28;20373;-86
2022/10/09 12:45:29;;;;;;;10.80;2.00;;;12.60;99.90;;;;;;5088747;28;20394;-83
2022/10/09 12:47:58;;;;;;;8.10;1.92;;;12.50;99.90;;;;;;5092139;28;20413;-82
2022/10/09 12:50:30;;;;;;;8.55;2.00;;;12.60;99.90;;;;;;5097696;28;20366;-87
2022/10/09 12:53:07;;;;;;;8.43;2.10;;;12.60;99.90;;;;;;5096624;28;20374;-86
2022/10/09 12:55:43;;;;;;;8.73;2.50;;;12.60;99.90;;;;;;5086740;28;20881;-84
2022/10/09 12:58:13;;;;;;;9.23;2.53;;;12.50;99.90;;;;;;5078029;28;20410;-87
2022/10/09 13:00:41;;;;;;;7.97;2.25;;;12.40;99.90;;;;;;5074261;28;20374;-83
2022/10/09 13:03:34;;;;;;;11.07;2.30;;;12.40;99.90;;;;;;5075086;28;20383;-90
2022/10/09 13:06:22;;;;;;;7.25;2.13;;;12.30;99.90;;;;;;4994835;28;20384;-88
2022/10/09 13:08:58;;;;;;;5.80;1.90;;;12.30;99.90;;;;;;4979491;28;20409;-89
2022/10/09 13:11:42;;;;;;;7.10;2.00;;;12.30;99.90;;;;;;4993106;28;20380;-94
2022/10/09 13:15:06;;;;;;;8.70;2.10;;;12.20;99.90;;;;;;4991279;28;20765;-89
2022/10/09 13:17:39;;;;;;;6.82;2.10;;;12.20;99.90;;;;;;4938330;29;20394;-85
2022/10/09 13:20:14;;;;;;;7.50;1.92;;;12.10;99.90;;;;;;4942103;29;20392;-94